Time;durP1;ratioP1;P1;durP2;ratioP2;P2;SDS_P1;SDS_P2;PMS_P1;PMS_P2;Temp;Humidity;BMP_temperature;BMP_pressure;BME280_temperature;BME280_humidity;BME280_pressure;Samples;Min_cycle;Max_cycle;Signal;HPM_P1;HPM_P2
2022/04/11 00:00:38;;;;;;;7.13;3.97;;;2.60;99.90;;;;;;4984794;28;20030;-86
2022/04/11 00:03:03;;;;;;;9.05;5.00;;;2.60;99.90;;;;;;5001083;28;20509;-87
2022/04/11 00:05:29;;;;;;;6.70;4.45;;;2.60;99.90;;;;;;4984331;28;20038;-87
2022/04/11 00:07:55;;;;;;;7.32;3.97;;;2.70;99.90;;;;;;4986146;28;20449;-87
2022/04/11 00:10:20;;;;;;;6.47;4.63;;;2.70;99.90;;;;;;4984858;28;20034;-88
2022/04/11 00:12:46;;;;;;;7.10;4.47;;;2.60;99.90;;;;;;5003545;28;20383;-88
2022/04/11 00:18:34;;;;;;;7.70;4.10;;;2.70;99.90;;;;;;5001872;28;20049;-87
2022/04/11 00:21:53;;;;;;;8.40;3.85;;;2.70;99.90;;;;;;5002760;28;20032;-87
2022/04/11 00:24:18;;;;;;;9.18;4.32;;;2.70;99.90;;;;;;4985701;28;20592;-89
2022/04/11 00:27:06;;;;;;;4.57;3.35;;;2.70;99.90;;;;;;4986152;28;20034;-88
2022/04/11 00:29:32;;;;;;;7.25;3.58;;;2.60;99.90;;;;;;4985224;28;20022;-87
2022/04/11 00:31:57;;;;;;;10.35;3.60;;;2.60;99.90;;;;;;4985370;28;20033;-87
2022/04/11 00:34:23;;;;;;;5.20;3.83;;;2.50;99.90;;;;;;4984827;28;20030;-85
2022/04/11 00:36:49;;;;;;;5.43;3.67;;;2.50;99.90;;;;;;4999168;28;20050;-88
2022/04/11 00:40:13;;;;;;;8.82;3.80;;;2.50;99.90;;;;;;4982732;28;20022;-87
2022/04/11 00:42:51;;;;;;;8.60;3.45;;;2.50;99.90;;;;;;4996544;28;20026;-92
2022/04/11 00:45:17;;;;;;;6.70;4.10;;;2.60;99.90;;;;;;4996142;28;20041;-91
2022/04/11 00:47:46;;;;;;;10.70;3.75;;;2.60;99.90;;;;;;4997673;28;20026;-90
2022/04/11 00:50:29;;;;;;;4.18;3.28;;;2.60;99.90;;;;;;4996660;28;20439;-89
2022/04/11 00:52:56;;;;;;;7.30;3.83;;;2.60;99.90;;;;;;4980272;28;20029;-88
2022/04/11 00:56:03;;;;;;;6.55;3.67;;;2.60;99.90;;;;;;4979284;28;20079;-87
2022/04/11 00:59:07;;;;;;;4.97;3.55;;;2.60;99.90;;;;;;4965450;28;20038;-87
2022/04/11 01:01:36;;;;;;;14.68;4.25;;;2.70;99.90;;;;;;4997863;28;20113;-84
2022/04/11 01:04:23;;;;;;;11.43;3.42;;;2.60;99.90;;;;;;4978947;28;20030;-87
2022/04/11 01:06:56;;;;;;;8.93;4.10;;;2.70;99.90;;;;;;4996808;28;20073;-87
2022/04/11 01:09:33;;;;;;;8.93;4.68;;;2.70;99.90;;;;;;4995972;28;20118;-86
2022/04/11 01:12:01;;;;;;;7.05;4.47;;;2.70;99.90;;;;;;4996698;28;20386;-86
2022/04/11 01:14:34;;;;;;;7.00;4.40;;;2.80;99.90;;;;;;4996194;28;20026;-87
2022/04/11 01:17:03;;;;;;;12.45;4.95;;;2.80;99.90;;;;;;4978785;28;20029;-87
2022/04/11 01:19:29;;;;;;;6.38;4.00;;;2.90;99.90;;;;;;4978991;28;20077;-84
2022/04/11 01:22:00;;;;;;;7.50;4.53;;;3.00;99.90;;;;;;4995705;28;20032;-86
2022/04/11 01:24:36;;;;;;;15.32;5.07;;;3.00;99.90;;;;;;4977265;28;20033;-85
2022/04/11 01:27:05;;;;;;;10.02;4.18;;;3.00;99.90;;;;;;4977749;28;20027;-87
2022/04/11 01:29:45;;;;;;;10.00;4.63;;;3.10;99.90;;;;;;4977893;28;20024;-88
2022/04/11 01:32:23;;;;;;;11.45;4.55;;;3.10;99.90;;;;;;4976885;28;20126;-87
2022/04/11 01:34:57;;;;;;;9.18;4.18;;;3.20;99.90;;;;;;4995148;28;20042;-88
2022/04/11 01:37:29;;;;;;;8.70;4.88;;;3.30;99.90;;;;;;4975778;28;20441;-87
2022/04/11 01:39:54;;;;;;;;;;;3.30;99.90;;;;;;4995339;28;20046;-86
2022/04/11 01:42:23;;;;;;;8.05;4.47;;;3.40;99.90;;;;;;4977189;28;19956;-84
2022/04/11 01:44:54;;;;;;;9.00;5.07;;;3.50;99.90;;;;;;4977321;28;20039;-86
2022/04/11 01:47:22;;;;;;;;;;;3.40;99.90;;;;;;4977827;28;20038;-87
2022/04/11 01:49:56;;;;;;;10.57;4.28;;;3.50;99.90;;;;;;4977512;28;19945;-87
2022/04/11 01:52:30;;;;;;;7.22;4.53;;;3.50;99.90;;;;;;4977202;28;20026;-91
2022/04/11 01:55:04;;;;;;;8.95;3.90;;;3.50;99.90;;;;;;4976979;28;20169;-87
2022/04/11 01:57:33;;;;;;;7.18;4.10;;;3.60;99.90;;;;;;4976927;28;20479;-87
2022/04/11 02:00:09;;;;;;;7.00;3.70;;;3.60;99.90;;;;;;4976987;28;20030;-87
2022/04/11 02:02:43;;;;;;;11.00;4.30;;;3.60;99.90;;;;;;4994869;28;20022;-85
2022/04/11 02:05:09;;;;;;;7.57;4.20;;;3.60;99.90;;;;;;4995029;28;20026;-85
2022/04/11 02:07:37;;;;;;;7.10;3.70;;;3.70;99.90;;;;;;4977198;28;20121;-85
2022/04/11 02:10:06;;;;;;;7.25;4.55;;;3.70;99.90;;;;;;4977068;28;20030;-84
2022/04/11 02:12:35;;;;;;;7.70;4.22;;;3.70;99.90;;;;;;4976677;28;20451;-86
2022/04/11 02:15:11;;;;;;;9.95;3.90;;;3.70;99.90;;;;;;4976889;28;20026;-85
2022/04/11 02:17:47;;;;;;;8.60;3.75;;;3.70;99.90;;;;;;4976856;28;20105;-85
2022/04/11 02:20:15;;;;;;;8.40;4.10;;;3.70;99.90;;;;;;4993795;28;20030;-86
2022/04/11 02:22:56;;;;;;;8.30;3.67;;;3.70;99.90;;;;;;4976713;28;20033;-85
2022/04/11 02:25:34;;;;;;;6.97;4.05;;;3.70;99.90;;;;;;4976553;28;20034;-85
2022/04/11 02:28:00;;;;;;;6.25;3.83;;;3.70;99.90;;;;;;4976729;28;20092;-85
2022/04/11 02:30:34;;;;;;;10.85;4.47;;;3.70;99.90;;;;;;4993725;28;20022;-84
2022/04/11 02:33:09;;;;;;;9.70;3.85;;;3.70;99.90;;;;;;4976637;28;20398;-83
2022/04/11 02:35:42;;;;;;;6.18;3.65;;;3.70;99.90;;;;;;4957862;28;20050;-85
2022/04/11 02:38:16;;;;;;;6.30;3.85;;;3.70;99.90;;;;;;4974563;28;20442;-84
2022/04/11 02:40:50;;;;;;;8.00;4.05;;;3.80;99.90;;;;;;4957773;28;20026;-83
2022/04/11 02:43:22;;;;;;;6.40;3.08;;;3.80;99.90;;;;;;4975400;28;20026;-85
2022/04/11 02:46:00;;;;;;;5.32;3.67;;;3.80;99.90;;;;;;4974323;28;20034;-85
2022/04/11 02:48:26;;;;;;;6.18;3.63;;;3.70;99.90;;;;;;4979572;28;20105;-85
2022/04/11 02:51:00;;;;;;;11.85;3.75;;;3.70;99.90;;;;;;4976531;28;20168;-85
2022/04/11 02:53:29;;;;;;;5.35;3.45;;;3.60;99.90;;;;;;4994805;28;20103;-85
2022/04/11 02:56:05;;;;;;;7.97;3.50;;;3.60;99.90;;;;;;4976616;28;20030;-86
2022/04/11 02:58:36;;;;;;;7.43;3.60;;;3.60;99.90;;;;;;4977127;28;20029;-87
2022/04/11 03:01:08;;;;;;;5.53;3.45;;;3.60;99.90;;;;;;4994038;28;20453;-85
2022/04/11 03:03:37;;;;;;;6.70;3.45;;;3.50;99.90;;;;;;4976732;28;20097;-82
2022/04/11 03:06:03;;;;;;;8.82;4.18;;;3.50;99.90;;;;;;4989097;23;20042;-88
2022/04/11 03:08:29;;;;;;;6.57;3.72;;;3.50;99.90;;;;;;4973335;28;20030;-88
2022/04/11 03:10:54;;;;;;;6.13;3.40;;;3.40;99.90;;;;;;4973907;28;20539;-87
2022/04/11 03:13:20;;;;;;;4.80;3.13;;;3.40;99.90;;;;;;4974229;28;20025;-89
2022/04/11 03:15:46;;;;;;;7.55;3.33;;;3.30;99.90;;;;;;4956265;28;20372;-88
2022/04/11 03:18:12;;;;;;;5.32;3.55;;;3.30;99.90;;;;;;4962804;28;20026;-88
2022/04/11 03:20:37;;;;;;;5.43;3.30;;;3.30;99.90;;;;;;4973383;28;20023;-88
2022/04/11 03:23:03;;;;;;;7.45;3.65;;;3.30;99.90;;;;;;4956142;28;20031;-88
2022/04/11 03:25:28;;;;;;;7.53;3.83;;;3.30;99.90;;;;;;4956341;28;20513;-88
2022/04/11 03:27:54;;;;;;;7.55;3.75;;;3.30;99.90;;;;;;4973286;28;20031;-88
2022/04/11 03:30:20;;;;;;;9.07;3.90;;;3.30;99.90;;;;;;4956707;28;20688;-88
2022/04/11 03:32:45;;;;;;;5.63;3.30;;;3.30;99.90;;;;;;4980791;28;20047;-88
2022/04/11 03:35:11;;;;;;;9.10;4.68;;;3.30;99.90;;;;;;4980942;28;20030;-87
2022/04/11 03:37:37;;;;;;;9.07;4.72;;;3.20;99.90;;;;;;4980909;28;20170;-88
2022/04/11 03:40:03;;;;;;;5.78;2.92;;;3.20;99.90;;;;;;4979833;28;20031;-87
2022/04/11 03:42:28;;;;;;;6.95;3.50;;;3.10;99.90;;;;;;4980878;28;20487;-87
2022/04/11 03:44:54;;;;;;;4.25;3.30;;;3.10;99.90;;;;;;4982947;28;20062;-89
2022/04/11 03:47:19;;;;;;;6.22;3.30;;;3.10;99.90;;;;;;4967345;28;20027;-88
2022/04/11 03:49:45;;;;;;;9.85;3.92;;;3.10;99.90;;;;;;4969717;28;20096;-87
2022/04/11 03:52:11;;;;;;;6.55;3.17;;;3.10;99.90;;;;;;4975671;28;20027;-88
2022/04/11 03:54:36;;;;;;;8.90;4.50;;;3.00;99.90;;;;;;4973475;28;20487;-88
2022/04/11 03:57:02;;;;;;;8.20;3.45;;;3.00;99.90;;;;;;4956952;28;20033;-87
2022/04/11 03:59:28;;;;;;;9.90;3.97;;;3.00;99.90;;;;;;4974375;28;20027;-87
2022/04/11 04:01:55;;;;;;;6.43;3.30;;;3.00;99.90;;;;;;4959695;28;20396;-87
2022/04/11 04:04:20;;;;;;;6.50;3.55;;;3.00;99.90;;;;;;4976803;28;20136;-88
2022/04/11 04:06:46;;;;;;;6.35;3.67;;;2.90;99.90;;;;;;4976780;28;20042;-88
2022/04/11 04:09:12;;;;;;;10.05;3.90;;;2.90;99.90;;;;;;4959056;28;20141;-87
2022/04/11 04:11:37;;;;;;;7.95;4.43;;;2.90;99.90;;;;;;4959134;28;20027;-89
2022/04/11 04:14:03;;;;;;;5.95;3.53;;;2.90;99.90;;;;;;4958923;28;20023;-88
2022/04/11 04:16:28;;;;;;;7.20;3.58;;;2.90;99.90;;;;;;4958971;28;20058;-88
2022/04/11 04:18:54;;;;;;;5.78;3.60;;;2.90;99.90;;;;;;4976795;28;20031;-87
2022/04/11 04:21:19;;;;;;;8.00;3.63;;;2.90;99.90;;;;;;4976186;28;20412;-87
2022/04/11 04:23:45;;;;;;;9.40;3.85;;;2.90;99.90;;;;;;4959098;28;20489;-86
2022/04/11 04:26:11;;;;;;;6.55;3.30;;;2.90;99.90;;;;;;4959272;28;20027;-86
2022/04/11 04:28:36;;;;;;;8.73;3.20;;;2.90;99.90;;;;;;4976652;28;20383;-88
2022/04/11 04:31:02;;;;;;;7.25;3.42;;;2.80;99.90;;;;;;4976613;28;20033;-86
2022/04/11 04:33:31;;;;;;;7.35;3.20;;;2.80;99.90;;;;;;4977025;28;20026;-87
2022/04/11 04:35:57;;;;;;;7.47;3.47;;;2.80;99.90;;;;;;4976624;28;20479;-87
2022/04/11 04:38:22;;;;;;;8.60;3.42;;;2.70;99.90;;;;;;4959391;28;20031;-86
2022/04/11 04:40:48;;;;;;;5.32;3.53;;;2.70;99.90;;;;;;4976629;28;20082;-85
2022/04/11 04:43:13;;;;;;;8.57;3.25;;;2.70;99.90;;;;;;4976924;28;20050;-86
2022/04/11 04:45:39;;;;;;;7.55;3.55;;;2.60;99.90;;;;;;4958777;28;20027;-89
2022/04/11 04:48:06;;;;;;;7.43;3.58;;;2.60;99.90;;;;;;4958960;28;20458;-87
2022/04/11 04:50:32;;;;;;;9.10;4.43;;;2.60;99.90;;;;;;4958542;28;20070;-89
2022/04/11 04:52:58;;;;;;;5.57;3.60;;;2.60;99.90;;;;;;4975880;28;20069;-88
2022/04/11 04:55:24;;;;;;;7.63;3.67;;;2.60;99.90;;;;;;4976356;28;20030;-87
2022/04/11 04:57:50;;;;;;;10.00;3.83;;;2.60;99.90;;;;;;4975814;28;20042;-86
2022/04/11 05:00:16;;;;;;;9.90;4.22;;;2.50;99.90;;;;;;4959670;28;20023;-85
2022/04/11 05:02:43;;;;;;;8.90;3.80;;;2.60;99.90;;;;;;4977202;28;20037;-86
2022/04/11 05:05:10;;;;;;;8.57;4.05;;;2.50;99.90;;;;;;4959701;28;20042;-85
2022/04/11 05:07:37;;;;;;;7.70;4.60;;;2.50;99.90;;;;;;4976932;28;20101;-86
2022/04/11 05:10:06;;;;;;;10.27;4.30;;;2.60;99.90;;;;;;4959306;28;20027;-85
2022/04/11 05:12:46;;;;;;;5.57;3.83;;;2.60;99.90;;;;;;4959437;28;20027;-86
2022/04/11 05:15:13;;;;;;;6.38;3.92;;;2.60;99.90;;;;;;4974084;28;20054;-86
2022/04/11 05:17:39;;;;;;;9.43;4.28;;;2.60;99.90;;;;;;4959332;28;20073;-85
2022/04/11 05:20:11;;;;;;;8.20;4.60;;;2.70;99.90;;;;;;4977033;28;20443;-86
2022/04/11 05:22:37;;;;;;;12.70;4.53;;;2.70;99.90;;;;;;4977059;28;20023;-86
2022/04/11 05:25:04;;;;;;;10.02;3.80;;;2.70;99.90;;;;;;4958861;28;20061;-86
2022/04/11 05:27:29;;;;;;;7.55;3.80;;;2.70;99.90;;;;;;4975792;28;20031;-86
2022/04/11 05:29:55;;;;;;;5.60;3.55;;;2.70;99.90;;;;;;4975726;28;20038;-86
2022/04/11 05:32:21;;;;;;;6.38;3.95;;;2.70;99.90;;;;;;4975209;28;20037;-86
2022/04/11 05:34:46;;;;;;;10.02;4.47;;;2.70;99.90;;;;;;4958187;28;20033;-86
2022/04/11 05:37:12;;;;;;;10.30;4.57;;;2.80;99.90;;;;;;4975537;28;20165;-86
2022/04/11 05:39:38;;;;;;;7.80;4.07;;;2.80;99.90;;;;;;4958357;28;20030;-87
2022/04/11 05:42:05;;;;;;;9.45;4.40;;;2.80;99.90;;;;;;4975297;28;20324;-87
2022/04/11 05:44:30;;;;;;;9.40;4.47;;;2.90;99.90;;;;;;4957817;28;20030;-87
2022/04/11 05:46:59;;;;;;;6.30;3.97;;;3.00;99.90;;;;;;4975172;28;20348;-89
2022/04/11 05:49:25;;;;;;;7.72;3.63;;;3.00;99.90;;;;;;4957877;28;20033;-87
2022/04/11 05:51:59;;;;;;;6.30;4.10;;;3.10;99.90;;;;;;4957062;28;20054;-87
2022/04/11 05:54:25;;;;;;;9.35;4.72;;;3.20;99.90;;;;;;4975960;28;20038;-88
2022/04/11 05:56:50;;;;;;;8.88;5.30;;;3.20;99.90;;;;;;4975638;28;20050;-88
2022/04/11 05:59:18;;;;;;;11.35;4.45;;;3.20;99.90;;;;;;4976323;28;20031;-86
2022/04/11 06:01:44;;;;;;;9.57;4.97;;;3.30;99.90;;;;;;4957944;28;20035;-87
2022/04/11 06:04:10;;;;;;;6.55;3.95;;;3.30;99.90;;;;;;4957442;28;20030;-89
2022/04/11 06:06:36;;;;;;;9.20;4.78;;;3.40;99.90;;;;;;4975214;28;20423;-88
2022/04/11 06:09:02;;;;;;;6.70;4.40;;;3.40;99.90;;;;;;4957733;28;20027;-88
2022/04/11 06:11:30;;;;;;;12.27;5.03;;;3.50;99.90;;;;;;4975203;28;20026;-87
2022/04/11 06:13:56;;;;;;;12.02;4.53;;;3.50;99.90;;;;;;4976037;28;20110;-87
2022/04/11 06:16:23;;;;;;;10.73;4.70;;;3.60;99.90;;;;;;4958675;28;20579;-88
2022/04/11 06:18:58;;;;;;;13.70;5.15;;;3.70;99.90;;;;;;4977372;28;20045;-88
2022/04/11 06:21:50;;;;;;;7.63;4.88;;;3.80;99.90;;;;;;4959912;28;20182;-87
2022/04/11 06:24:28;;;;;;;7.15;4.82;;;3.80;99.90;;;;;;4957893;28;20031;-87
2022/04/11 06:26:54;;;;;;;7.50;4.63;;;3.90;99.90;;;;;;4956198;28;20046;-89
2022/04/11 06:29:41;;;;;;;8.02;4.38;;;3.90;99.90;;;;;;4953649;28;20565;-89
2022/04/11 06:32:10;;;;;;;11.60;5.30;;;4.00;99.90;;;;;;4954851;28;20035;-89
2022/04/11 06:34:36;;;;;;;11.02;5.47;;;4.10;99.90;;;;;;4956637;28;20102;-88
2022/04/11 06:37:11;;;;;;;8.35;5.07;;;4.10;99.90;;;;;;4956092;28;20026;-90
2022/04/11 06:39:39;;;;;;;10.90;5.07;;;4.10;99.90;;;;;;4973664;28;20372;-90
2022/04/11 06:42:05;;;;;;;9.27;4.40;;;4.20;99.90;;;;;;4955939;28;20114;-90
2022/04/11 06:44:38;;;;;;;9.45;5.60;;;4.30;99.90;;;;;;4956867;28;20122;-90
2022/04/11 06:47:04;;;;;;;16.00;7.13;;;4.30;99.90;;;;;;4974172;28;20050;-89
2022/04/11 06:49:30;;;;;;;8.02;5.18;;;4.40;99.90;;;;;;4957239;28;20031;-89
2022/04/11 06:51:58;;;;;;;7.50;4.53;;;4.60;99.90;;;;;;4973163;28;20065;-88
2022/04/11 06:54:27;;;;;;;9.48;4.90;;;4.60;99.90;;;;;;4975614;28;20026;-86
2022/04/11 06:56:55;;;;;;;12.40;4.97;;;4.70;99.90;;;;;;4956554;28;20114;-87
2022/04/11 06:59:27;;;;;;;7.32;4.10;;;4.70;99.90;;;;;;4956783;28;20039;-87
2022/04/11 07:01:53;;;;;;;9.52;4.95;;;4.80;99.90;;;;;;4955873;28;20042;-89
2022/04/11 07:04:22;;;;;;;10.23;4.53;;;4.90;99.90;;;;;;4973934;28;20395;-88
2022/04/11 07:07:10;;;;;;;7.90;4.47;;;5.00;99.90;;;;;;4957111;28;20423;-87
2022/04/11 07:09:46;;;;;;;6.78;3.80;;;5.10;99.90;;;;;;4974745;28;20039;-88
2022/04/11 07:12:12;;;;;;;11.20;4.32;;;5.20;99.90;;;;;;4971255;28;20045;-86
2022/04/11 07:14:38;;;;;;;7.72;4.60;;;5.40;99.90;;;;;;4960557;28;20121;-84
2022/04/11 07:17:07;;;;;;;7.80;3.47;;;5.40;99.90;;;;;;4958227;28;20054;-86
2022/04/11 07:19:35;;;;;;;7.15;4.35;;;5.50;99.90;;;;;;4958117;28;20027;-87
2022/04/11 07:22:01;;;;;;;9.70;4.07;;;5.70;99.70;;;;;;4956724;28;20112;-87
2022/04/11 07:30:32;;;;;;;9.98;3.80;;;5.90;96.40;;;;;;4981907;28;20026;-87
2022/04/11 07:36:47;;;;;;;7.20;3.42;;;6.10;96.90;;;;;;5064496;23;20129;-85
2022/04/11 07:39:14;;;;;;;11.88;3.67;;;6.30;95.50;;;;;;4962524;28;20038;-86
2022/04/11 07:41:55;;;;;;;6.57;3.72;;;6.40;95.20;;;;;;4960890;28;20470;-87
2022/04/11 07:44:22;;;;;;;;;;;6.50;94.30;;;;;;4970068;28;20023;-85
2022/04/11 07:46:48;;;;;;;8.70;3.40;;;6.60;93.40;;;;;;4970478;28;19910;-85
2022/04/11 07:49:13;;;;;;;5.68;3.20;;;6.60;94.10;;;;;;4942262;29;20062;-86
2022/04/11 07:51:42;;;;;;;5.05;3.42;;;6.70;93.70;;;;;;4957888;28;20063;-85
2022/04/11 07:56:46;;;;;;;4.95;3.08;;;7.00;91.80;;;;;;5302929;23;20111;-86
2022/04/11 07:59:11;;;;;;;6.22;3.38;;;7.20;91.30;;;;;;4961101;28;20023;-86
2022/04/11 08:02:21;;;;;;;6.82;2.97;;;7.20;91.60;;;;;;4960378;28;20039;-88
2022/04/11 08:14:10;;;;;;;5.38;3.28;;;7.80;87.70;;;;;;4960836;28;20043;-87
2022/04/11 08:16:37;;;;;;;3.08;2.58;;;8.10;83.50;;;;;;4959539;28;20408;-87
2022/04/11 08:19:09;;;;;;;5.38;2.67;;;8.20;83.20;;;;;;4958686;29;20110;-87
2022/04/11 08:24:58;;;;;;;5.53;2.63;;;8.30;79.10;;;;;;4920919;29;20173;-88
2022/04/11 08:27:24;;;;;;;5.20;2.55;;;8.50;76.70;;;;;;4940204;29;20541;-88
2022/04/11 08:40:03;;;;;;;4.43;2.53;;;9.20;72.10;;;;;;4955304;28;19923;-89
2022/04/11 08:42:39;;;;;;;5.90;2.47;;;9.30;72.40;;;;;;4908282;29;20047;-89
2022/04/11 08:45:14;;;;;;;8.38;2.50;;;9.50;71.50;;;;;;4939445;28;20035;-90
2022/04/11 08:47:43;;;;;;;7.45;2.17;;;9.70;69.10;;;;;;4939467;29;20023;-90
2022/04/11 08:50:12;;;;;;;5.22;2.10;;;9.80;69.40;;;;;;4956986;29;20510;-88
2022/04/11 08:52:38;;;;;;;8.02;2.45;;;10.10;69.50;;;;;;4939942;29;20031;-88
2022/04/11 08:55:07;;;;;;;4.65;2.20;;;10.30;67.30;;;;;;4957194;28;20019;-90
2022/04/11 08:57:36;;;;;;;6.78;2.70;;;10.30;67.00;;;;;;4956570;29;20082;-90
2022/04/11 09:00:09;;;;;;;5.38;1.98;;;10.40;66.50;;;;;;4940497;29;20055;-88
2022/04/11 09:02:35;;;;;;;3.53;1.83;;;10.70;67.00;;;;;;4957533;29;20031;-88
2022/04/11 09:05:02;;;;;;;4.82;2.30;;;10.70;64.30;;;;;;4941473;29;20134;-86
2022/04/11 09:07:43;;;;;;;4.18;1.98;;;10.90;64.80;;;;;;4956945;29;20102;-89
2022/04/11 09:10:08;;;;;;;2.90;1.95;;;11.10;64.90;;;;;;4957190;29;20450;-88
2022/04/11 09:12:45;;;;;;;3.92;1.80;;;11.40;61.20;;;;;;4956367;28;20114;-88
2022/04/11 09:15:11;;;;;;;3.70;2.00;;;11.60;60.40;;;;;;4957296;29;20083;-87
2022/04/11 09:17:41;;;;;;;4.78;2.03;;;11.70;61.10;;;;;;4940449;29;20487;-88
2022/04/11 09:20:12;;;;;;;2.38;1.65;;;11.90;59.10;;;;;;4957032;29;20023;-87
2022/04/11 09:22:38;;;;;;;3.75;1.83;;;12.10;56.10;;;;;;4956802;29;20027;-86
2022/04/11 09:25:09;;;;;;;4.18;1.60;;;12.20;56.10;;;;;;4956898;28;20031;-88
2022/04/11 09:27:35;;;;;;;5.80;1.85;;;12.20;57.00;;;;;;4939093;29;20028;-88
2022/04/11 09:30:01;;;;;;;4.13;1.50;;;12.30;55.20;;;;;;4957680;29;20031;-88
2022/04/11 09:32:27;;;;;;;4.18;2.05;;;12.40;55.80;;;;;;4941300;29;20038;-89
2022/04/11 09:34:56;;;;;;;3.65;1.90;;;12.50;54.20;;;;;;4941508;29;20123;-86
2022/04/11 09:37:21;;;;;;;5.35;1.55;;;12.60;53.90;;;;;;4941515;28;20027;-87
2022/04/11 09:39:59;;;;;;;3.25;1.73;;;12.50;53.40;;;;;;4943370;29;20027;-88
2022/04/11 09:42:32;;;;;;;4.80;1.67;;;12.40;53.70;;;;;;4940005;29;20027;-88
2022/04/11 09:45:01;;;;;;;3.03;1.67;;;12.70;53.10;;;;;;4946672;29;20028;-87
2022/04/11 09:47:27;;;;;;;4.50;1.80;;;12.80;54.00;;;;;;4961884;29;20035;-86
2022/04/11 09:49:53;;;;;;;4.30;1.67;;;12.80;53.30;;;;;;4961720;29;20115;-87
2022/04/11 09:52:19;;;;;;;3.15;1.65;;;13.00;53.70;;;;;;4943738;29;20055;-87
2022/04/11 09:54:52;;;;;;;4.03;2.05;;;13.30;54.80;;;;;;4943151;29;20030;-87
2022/04/11 09:57:18;;;;;;;3.53;1.40;;;13.40;54.50;;;;;;4939598;29;20023;-87
2022/04/11 09:59:45;;;;;;;2.92;1.88;;;13.60;52.70;;;;;;4941526;29;20027;-87
2022/04/11 10:02:14;;;;;;;5.18;1.92;;;13.70;52.80;;;;;;4942898;29;20027;-87
2022/04/11 10:04:40;;;;;;;4.45;1.90;;;13.60;52.80;;;;;;4941457;29;20030;-87
2022/04/11 10:07:12;;;;;;;3.53;1.45;;;13.80;53.00;;;;;;4939836;29;20035;-87
2022/04/11 10:09:42;;;;;;;5.38;1.77;;;13.90;52.50;;;;;;4957040;28;20023;-88
2022/04/11 10:12:08;;;;;;;4.13;1.67;;;13.90;52.30;;;;;;4957451;28;20028;-87
2022/04/11 10:14:35;;;;;;;3.33;1.30;;;14.10;51.50;;;;;;4957315;28;20033;-87
2022/04/11 10:17:02;;;;;;;2.63;1.30;;;14.30;49.00;;;;;;4957526;29;20031;-88
2022/04/11 10:19:33;;;;;;;3.63;1.70;;;14.50;49.30;;;;;;4939770;29;20051;-87
2022/04/11 10:22:26;;;;;;;2.33;1.35;;;14.90;50.90;;;;;;4940438;29;20063;-87
2022/04/11 10:25:05;;;;;;;3.28;1.60;;;15.20;47.60;;;;;;4937112;29;20039;-87
2022/04/11 10:27:32;;;;;;;3.05;1.13;;;15.20;47.20;;;;;;4957044;29;20416;-88
2022/04/11 10:29:59;;;;;;;1.98;1.42;;;15.30;47.70;;;;;;4940560;29;20203;-88
2022/04/11 10:32:28;;;;;;;2.75;1.63;;;15.60;45.40;;;;;;4954310;29;20034;-88
2022/04/11 10:35:07;;;;;;;3.03;1.17;;;15.40;43.70;;;;;;4922573;29;20052;-87
2022/04/11 10:37:35;;;;;;;2.35;1.23;;;15.40;44.40;;;;;;4921081;29;20559;-88
2022/04/11 10:40:16;;;;;;;5.93;1.67;;;15.50;44.20;;;;;;4938946;29;20027;-88
2022/04/11 10:43:12;;;;;;;2.30;1.15;;;15.00;45.10;;;;;;4938728;29;20024;-89
2022/04/11 10:46:15;;;;;;;2.33;1.42;;;15.00;43.30;;;;;;4921422;29;20081;-88
2022/04/11 10:53:10;;;;;;;6.15;1.73;;;15.40;43.10;;;;;;4937910;29;20035;-88
2022/04/11 10:55:28;;;;;;;2.65;1.42;;;14.90;44.00;;;;;;4930566;29;20086;-89
2022/04/11 10:58:28;;;;;;;2.65;1.40;;;15.00;45.40;;;;;;4921347;29;20035;-86
2022/04/11 11:01:01;;;;;;;3.88;1.50;;;15.40;43.50;;;;;;4922564;29;20028;-89
2022/04/11 11:03:39;;;;;;;4.28;1.50;;;15.50;44.80;;;;;;4916622;29;20035;-88
2022/04/11 11:09:54;;;;;;;4.40;1.55;;;15.80;44.40;;;;;;4929005;29;20024;-88
2022/04/11 11:13:04;;;;;;;2.25;1.52;;;16.10;44.20;;;;;;4933212;29;20039;-87
2022/04/11 11:16:44;;;;;;;1.45;1.23;;;16.40;43.10;;;;;;4917591;29;20080;-88
2022/04/11 11:19:50;;;;;;;2.08;1.27;;;16.60;42.80;;;;;;4934295;29;20032;-87
2022/04/11 11:22:38;;;;;;;2.67;1.50;;;16.50;42.40;;;;;;4911926;29;20568;-88
2022/04/11 11:25:31;;;;;;;2.95;1.50;;;16.10;43.00;;;;;;4937095;29;20043;-87
2022/04/11 11:28:08;;;;;;;2.00;1.33;;;16.30;43.60;;;;;;4936634;29;20040;-88
2022/04/11 11:31:19;;;;;;;;;;;;;;;;;;;;;
2022/04/11 11:34:37;;;;;;;4.65;1.80;;;16.70;42.70;;;;;;4937602;29;20035;-86
2022/04/11 11:37:49;;;;;;;4.00;1.20;;;16.80;42.90;;;;;;4919922;29;20035;-88
2022/04/11 11:41:13;;;;;;;2.47;1.00;;;17.10;41.60;;;;;;4919973;29;20044;-87
2022/04/11 11:44:08;;;;;;;2.33;1.05;;;16.90;43.20;;;;;;4881560;29;20044;-89
2022/04/11 11:46:48;;;;;;;2.78;1.45;;;17.30;42.40;;;;;;4894799;29;20063;-88
2022/04/11 11:49:51;;;;;;;3.85;1.77;;;17.20;41.00;;;;;;4920897;29;20468;-87
2022/04/11 11:52:31;;;;;;;2.95;1.45;;;17.10;43.00;;;;;;4934838;29;20040;-87
2022/04/11 11:55:04;;;;;;;3.25;1.50;;;17.10;43.00;;;;;;4920353;29;20495;-89
2022/04/11 11:57:59;;;;;;;5.82;1.40;;;17.30;43.10;;;;;;4936379;29;20448;-88
2022/04/11 12:00:38;;;;;;;2.47;1.10;;;17.50;42.00;;;;;;4915383;29;20380;-88
2022/04/11 12:06:10;;;;;;;3.58;1.77;;;17.50;41.90;;;;;;4937484;29;20034;-88
2022/04/11 12:08:36;;;;;;;1.75;1.25;;;17.60;40.40;;;;;;4920246;29;20068;-87
2022/04/11 12:11:14;;;;;;;;;;;;;;;;;;;;;
2022/04/11 12:14:00;;;;;;;3.55;1.40;;;17.90;41.20;;;;;;4933155;29;20114;-89
2022/04/11 12:16:30;;;;;;;2.00;1.17;;;18.00;41.10;;;;;;4920311;29;20507;-88
2022/04/11 12:18:58;;;;;;;4.53;1.60;;;18.00;41.70;;;;;;4918333;29;20428;-87
2022/04/11 12:21:34;;;;;;;5.20;1.20;;;18.20;40.70;;;;;;4936943;29;20091;-88
2022/04/11 12:24:01;;;;;;;2.78;1.08;;;18.10;40.10;;;;;;4938647;29;20028;-88
2022/04/11 12:26:35;;;;;;;5.95;1.20;;;18.40;40.40;;;;;;4939226;29;20047;-88
2022/04/11 12:29:10;;;;;;;2.25;1.48;;;18.60;39.30;;;;;;4938578;29;20031;-89
2022/04/11 12:31:37;;;;;;;2.55;1.30;;;18.60;38.60;;;;;;4938720;29;20107;-89
2022/04/11 12:34:11;;;;;;;4.43;1.27;;;18.50;39.80;;;;;;4921588;29;20488;-88
2022/04/11 12:36:37;;;;;;;2.33;0.90;;;18.60;38.70;;;;;;4921562;29;20023;-88
2022/04/11 12:39:15;;;;;;;3.15;1.10;;;18.70;41.00;;;;;;4921473;29;20507;-88
2022/04/11 12:41:44;;;;;;;2.38;1.20;;;18.90;39.60;;;;;;4920813;29;20038;-87
2022/04/11 12:44:17;;;;;;;4.70;1.40;;;18.90;38.90;;;;;;4922106;29;20395;-88
2022/04/11 12:46:44;;;;;;;4.07;1.30;;;18.90;39.50;;;;;;4921633;29;20028;-89
2022/04/11 12:49:19;;;;;;;4.03;1.17;;;18.90;38.50;;;;;;4938407;29;20023;-89
2022/04/11 12:52:01;;;;;;;2.20;0.85;;;18.90;39.10;;;;;;4921090;29;20027;-88
2022/04/11 12:54:40;;;;;;;1.92;1.30;;;18.90;39.70;;;;;;4938490;29;20087;-89
2022/04/11 12:57:07;;;;;;;4.97;1.20;;;18.70;38.20;;;;;;4938015;29;20028;-88
2022/04/11 12:59:36;;;;;;;2.75;1.17;;;18.80;39.30;;;;;;4920928;29;20038;-85
2022/04/11 13:02:06;;;;;;;4.70;1.15;;;18.90;37.70;;;;;;4937974;29;20074;-86
2022/04/11 13:04:33;;;;;;;1.77;0.90;;;19.00;37.60;;;;;;4920677;29;20127;-87
2022/04/11 13:06:59;;;;;;;2.03;1.10;;;19.40;39.10;;;;;;4920951;29;20118;-87
2022/04/11 13:09:25;;;;;;;4.47;1.35;;;19.50;37.40;;;;;;4921066;29;20056;-86
2022/04/11 13:11:52;;;;;;;2.22;1.13;;;19.50;36.90;;;;;;4921164;29;20056;-88
2022/04/11 13:14:18;;;;;;;2.60;1.00;;;19.50;36.30;;;;;;4938107;29;20107;-88
2022/04/11 13:19:29;;;;;;;2.05;1.10;;;19.80;37.40;;;;;;4940114;29;20064;-88
2022/04/11 13:21:55;;;;;;;2.13;1.20;;;20.10;37.00;;;;;;4936046;29;20412;-91
2022/04/11 13:24:20;;;;;;;1.83;1.20;;;20.30;36.30;;;;;;4923148;29;20027;-89
2022/04/11 13:26:55;;;;;;;1.65;1.00;;;20.30;35.90;;;;;;4940242;29;20069;-87
2022/04/11 13:29:24;;;;;;;3.13;1.20;;;20.30;34.00;;;;;;4939646;29;20028;-87
2022/04/11 13:32:09;;;;;;;3.15;1.25;;;20.30;35.00;;;;;;4940179;29;20079;-87
2022/04/11 13:34:38;;;;;;;2.92;1.10;;;20.40;35.30;;;;;;4939886;28;20058;-88
2022/04/11 13:37:08;;;;;;;2.17;0.90;;;20.40;35.30;;;;;;4956732;28;20027;-87
2022/04/11 13:39:41;;;;;;;1.65;0.90;;;20.70;36.30;;;;;;4958514;29;20027;-88
2022/04/11 13:42:14;;;;;;;2.15;1.00;;;20.70;33.90;;;;;;4940577;29;20035;-87
2022/04/11 13:44:52;;;;;;;2.00;1.00;;;20.60;35.20;;;;;;4941615;28;20039;-88
2022/04/11 13:47:27;;;;;;;2.25;1.20;;;21.20;35.60;;;;;;4968064;29;20110;-88
2022/04/11 13:49:53;;;;;;;3.20;1.10;;;21.60;33.00;;;;;;4934443;29;20028;-88
2022/04/11 13:52:20;;;;;;;2.75;1.38;;;21.60;32.60;;;;;;4939932;29;20102;-87
2022/04/11 13:54:46;;;;;;;1.65;1.00;;;21.60;33.80;;;;;;4921235;29;20030;-89
2022/04/11 13:57:12;;;;;;;5.70;1.13;;;21.70;32.70;;;;;;4938951;29;20019;-90
2022/04/11 13:59:53;;;;;;;2.60;1.20;;;22.30;33.70;;;;;;4922303;29;20495;-90
2022/04/11 14:02:34;;;;;;;2.22;1.30;;;22.50;31.20;;;;;;4943730;29;20091;-90
2022/04/11 14:05:02;;;;;;;2.13;1.08;;;22.70;32.60;;;;;;4938580;29;20051;-86
2022/04/11 14:07:28;;;;;;;4.20;1.45;;;23.00;32.10;;;;;;4936253;29;20028;-85
2022/04/11 14:11:03;;;;;;;1.83;0.80;;;23.20;30.80;;;;;;4938309;29;20024;-88
2022/04/11 14:40:46;;;;;;;3.63;1.40;;;24.90;28.90;;;;;;4995293;28;20029;-86